createdAt,value
2018-01-12T00:00:25.285Z,4.66
2018-01-12T00:01:34.121Z,4.69
2018-01-12T00:02:42.945Z,4.58
2018-01-12T00:03:51.772Z,4.58
2018-01-12T00:05:00.601Z,4.66
2018-01-12T00:06:09.583Z,4.58
2018-01-12T00:07:18.415Z,4.58
2018-01-12T00:08:27.241Z,4.59
2018-01-12T00:09:36.070Z,4.69
2018-01-12T00:10:44.899Z,4.69
2018-01-12T00:11:54.000Z,4.75
2018-01-12T00:13:02.830Z,4.7
2018-01-12T00:14:11.658Z,4.72
2018-01-12T00:15:20.486Z,4.8
2018-01-12T00:16:29.313Z,4.7
2018-01-12T00:17:38.441Z,4.7
2018-01-12T00:18:47.269Z,4.75
2018-01-12T00:19:56.098Z,4.75
2018-01-12T00:21:04.928Z,4.7
2018-01-12T00:22:13.754Z,4.72
2018-01-12T00:23:22.733Z,4.7
2018-01-12T00:24:32.112Z,4.66
2018-01-12T00:25:41.218Z,4.77
2018-01-12T00:26:50.045Z,4.65
2018-01-12T00:27:58.872Z,4.67
2018-01-12T00:29:07.801Z,4.77
2018-01-12T00:30:16.629Z,4.7
2018-01-12T00:31:25.455Z,4.65
2018-01-12T00:32:34.282Z,4.62
2018-01-12T00:33:43.383Z,4.63
2018-01-12T00:34:52.211Z,4.54
2018-01-12T00:36:01.037Z,4.63
2018-01-12T00:37:09.868Z,4.65
2018-01-12T00:38:19.025Z,4.67
2018-01-12T00:39:27.854Z,4.63
2018-01-12T00:40:36.783Z,4.67
2018-01-12T00:41:45.886Z,4.62
2018-01-12T00:42:54.714Z,4.7
2018-01-12T00:44:03.822Z,4.62
2018-01-12T00:45:12.926Z,4.54
2018-01-12T00:46:21.904Z,4.63
2018-01-12T00:47:30.732Z,4.7
2018-01-12T00:48:39.557Z,4.66
2018-01-12T00:49:48.385Z,4.63
2018-01-12T00:50:57.215Z,4.62
2018-01-12T00:52:06.198Z,4.58
2018-01-12T00:53:15.020Z,4.62
2018-01-12T00:54:24.124Z,4.63
2018-01-12T00:55:33.225Z,4.62
2018-01-12T00:56:42.056Z,4.58
2018-01-12T00:57:51.204Z,4.6
2018-01-12T00:59:00.034Z,4.48
2018-01-12T01:00:08.864Z,4.72
2018-01-12T01:01:17.689Z,4.62
2018-01-12T01:02:26.518Z,4.72
2018-01-12T01:03:35.496Z,4.59
2018-01-12T01:04:44.327Z,4.59
2018-01-12T01:05:53.153Z,4.55
2018-01-12T01:07:01.983Z,4.52
2018-01-12T01:08:10.812Z,4.6
2018-01-12T01:09:19.942Z,4.65
2018-01-12T01:10:28.769Z,4.72
2018-01-12T01:11:37.602Z,4.75
2018-01-12T01:12:46.430Z,4.72
2018-01-12T01:13:55.257Z,4.69
2018-01-12T01:15:04.135Z,4.73
2018-01-12T01:16:12.964Z,4.7
2018-01-12T01:17:22.064Z,4.6
2018-01-12T01:18:30.887Z,4.7
2018-01-12T01:19:39.717Z,4.73
2018-01-12T01:20:48.695Z,4.72
2018-01-12T01:21:57.525Z,4.8
2018-01-12T01:23:06.625Z,4.72
2018-01-12T01:24:15.458Z,4.77
2018-01-12T01:25:24.287Z,4.69
2018-01-12T01:26:33.390Z,4.85
2018-01-12T01:27:42.220Z,4.75
2018-01-12T01:28:51.050Z,4.7
2018-01-12T01:29:59.877Z,4.69
2018-01-12T01:31:08.704Z,4.55
2018-01-12T01:32:17.532Z,4.59
2018-01-12T01:33:26.361Z,4.52
2018-01-12T01:34:35.193Z,4.6
2018-01-12T01:35:44.297Z,4.51
2018-01-12T01:36:53.124Z,4.52
2018-01-12T01:38:01.951Z,4.44
2018-01-12T01:39:10.774Z,4.42
2018-01-12T01:40:19.601Z,4.42
2018-01-12T01:41:28.431Z,5.02
2018-01-12T01:42:37.460Z,4.7
2018-01-12T01:43:46.391Z,4.7
2018-01-12T01:44:55.491Z,4.75
2018-01-12T01:46:04.319Z,4.72
2018-01-12T01:47:13.148Z,4.63
2018-01-12T01:48:21.977Z,4.47
2018-01-12T01:49:31.078Z,4.42
2018-01-12T01:50:40.183Z,4.41
2018-01-12T01:51:49.281Z,4.37
2018-01-12T01:52:58.119Z,4.41
2018-01-12T01:54:06.938Z,4.67
2018-01-12T01:55:15.816Z,4.65
2018-01-12T01:56:24.930Z,4.66
2018-01-12T01:57:33.768Z,4.63
2018-01-12T01:58:42.598Z,4.63
2018-01-12T01:59:51.426Z,4.52
2018-01-12T02:01:00.354Z,4.62
2018-01-12T02:02:09.184Z,4.69
2018-01-12T02:03:18.012Z,4.58
2018-01-12T02:04:27.112Z,4.6
2018-01-12T02:05:35.939Z,4.59
2018-01-12T02:06:44.918Z,4.54
2018-01-12T02:07:53.745Z,4.55
2018-01-12T02:09:02.574Z,4.45
2018-01-12T02:10:11.402Z,4.44
2018-01-12T02:11:20.503Z,4.41
2018-01-12T02:12:29.482Z,4.44
2018-01-12T02:13:38.310Z,4.41
2018-01-12T02:14:47.138Z,4.47
2018-01-12T02:15:55.966Z,4.55
2018-01-12T02:17:04.793Z,4.62
2018-01-12T02:18:13.769Z,4.58
2018-01-12T02:19:23.150Z,4.59
2018-01-12T02:20:31.980Z,4.58
2018-01-12T02:21:40.807Z,4.5
2018-01-12T02:22:49.642Z,4.52
2018-01-12T02:23:58.514Z,4.52
2018-01-12T02:25:07.351Z,4.58
2018-01-12T02:26:16.170Z,4.6
2018-01-12T02:27:25.000Z,4.6
2018-01-12T02:28:33.827Z,4.6
2018-01-12T02:29:42.907Z,4.6
2018-01-12T02:30:51.735Z,4.62
2018-01-12T02:32:00.560Z,4.55
2018-01-12T02:33:09.388Z,4.6
2018-01-12T02:34:18.218Z,4.54
2018-01-12T02:35:27.524Z,4.51
2018-01-12T02:36:36.351Z,4.55
2018-01-12T02:37:45.179Z,4.55
2018-01-12T02:38:54.010Z,4.47
2018-01-12T02:40:02.833Z,4.51
2018-01-12T02:41:11.713Z,4.62
2018-01-12T02:42:20.823Z,4.52
2018-01-12T02:43:29.653Z,4.55
2018-01-12T02:44:38.481Z,4.75
2018-01-12T02:45:47.309Z,4.69
2018-01-12T02:46:56.139Z,4.77
2018-01-12T02:48:04.968Z,4.63
2018-01-12T02:49:13.796Z,4.48
2018-01-12T02:50:22.623Z,4.58
2018-01-12T02:51:31.453Z,4.5
2018-01-12T02:52:40.527Z,4.6
2018-01-12T02:53:49.353Z,4.63
2018-01-12T02:54:58.181Z,4.5
2018-01-12T02:56:07.010Z,4.59
2018-01-12T02:57:15.841Z,4.5
2018-01-12T02:58:25.040Z,4.48
2018-01-12T02:59:33.868Z,4.44
2018-01-12T03:00:42.697Z,4.42
2018-01-12T03:01:51.525Z,4.5
2018-01-12T03:03:00.896Z,4.6
2018-01-12T03:04:09.826Z,4.58
2018-01-12T03:05:18.653Z,4.51
2018-01-12T03:06:27.480Z,4.58
2018-01-12T03:07:36.316Z,4.52
2018-01-12T03:08:45.417Z,4.54
2018-01-12T03:09:54.344Z,4.55
2018-01-12T03:11:03.172Z,4.63
2018-01-12T03:12:12.002Z,4.59
2018-01-12T03:13:20.830Z,4.65
2018-01-12T03:14:29.662Z,4.55
2018-01-12T03:15:38.640Z,4.85
2018-01-12T03:16:47.470Z,4.72
2018-01-12T03:17:56.298Z,4.65
2018-01-12T03:19:05.126Z,4.65
2018-01-12T03:20:13.953Z,4.6
2018-01-12T03:21:22.829Z,4.62
2018-01-12T03:22:31.658Z,4.63
2018-01-12T03:23:40.486Z,4.54
2018-01-12T03:24:49.313Z,4.55
2018-01-12T03:25:58.142Z,4.52
2018-01-12T03:27:07.024Z,4.51
2018-01-12T03:28:15.850Z,4.51
2018-01-12T03:29:24.676Z,4.41
2018-01-12T03:30:33.511Z,4.5
2018-01-12T03:31:42.338Z,4.45
2018-01-12T03:32:51.268Z,4.44
2018-01-12T03:34:00.642Z,4.4
2018-01-12T03:35:09.745Z,4.44
2018-01-12T03:36:18.572Z,4.47
2018-01-12T03:37:27.399Z,4.42
2018-01-12T03:38:36.327Z,4.4
2018-01-12T03:39:45.155Z,4.5
2018-01-12T03:40:53.984Z,4.42
2018-01-12T03:42:02.813Z,4.44
2018-01-12T03:43:11.693Z,4.41
2018-01-12T03:44:20.572Z,4.48
2018-01-12T03:45:29.398Z,4.44
2018-01-12T03:46:38.229Z,4.45
2018-01-12T03:47:47.605Z,4.47
2018-01-12T03:48:56.435Z,4.51
2018-01-12T03:50:05.367Z,4.42
2018-01-12T03:51:14.192Z,4.48
2018-01-12T03:52:23.021Z,4.45
2018-01-12T03:53:31.847Z,4.41
2018-01-12T03:54:40.676Z,4.41
2018-01-12T03:55:49.755Z,4.44
2018-01-12T03:56:58.581Z,4.44
2018-01-12T03:58:07.684Z,4.44
2018-01-12T03:59:16.513Z,4.41
2018-01-12T04:00:25.614Z,4.45
2018-01-12T04:01:34.442Z,4.42
2018-01-12T04:02:43.269Z,4.44
2018-01-12T04:03:52.418Z,4.5
2018-01-12T04:05:01.247Z,4.45
2018-01-12T04:06:10.082Z,4.42
2018-01-12T04:07:19.204Z,4.42
2018-01-12T04:08:28.033Z,4.54
2018-01-12T04:09:37.134Z,4.41
2018-01-12T04:10:45.960Z,4.44
2018-01-12T04:11:54.790Z,4.45
2018-01-12T04:13:03.667Z,4.44
2018-01-12T04:14:12.496Z,4.42
2018-01-12T04:15:21.325Z,4.44
2018-01-12T04:16:30.158Z,4.42
2018-01-12T04:17:38.977Z,4.41
2018-01-12T04:18:48.108Z,4.47
2018-01-12T04:19:56.931Z,4.42
2018-01-12T04:21:06.314Z,4.41
2018-01-12T04:22:15.142Z,4.45
2018-01-12T04:23:23.971Z,4.48
2018-01-12T04:24:32.949Z,4.48
2018-01-12T04:25:42.054Z,4.42
2018-01-12T04:26:50.883Z,4.42
2018-01-12T04:27:59.713Z,4.47
2018-01-12T04:29:08.819Z,4.45
2018-01-12T04:30:17.747Z,4.47
2018-01-12T04:31:26.575Z,4.45
2018-01-12T04:32:35.405Z,4.44
2018-01-12T04:33:44.231Z,4.41
2018-01-12T04:34:53.330Z,4.44
2018-01-12T04:36:02.315Z,4.45
2018-01-12T04:37:11.140Z,4.47
2018-01-12T04:38:19.968Z,4.55
2018-01-12T04:39:28.798Z,4.51
2018-01-12T04:40:37.905Z,4.52
2018-01-12T04:41:46.731Z,4.55
2018-01-12T04:42:55.567Z,4.58
2018-01-12T04:44:04.396Z,4.55
2018-01-12T04:45:13.222Z,4.55
2018-01-12T04:46:22.053Z,4.5
2018-01-12T04:47:30.933Z,4.42
2018-01-12T04:48:40.035Z,4.55
2018-01-12T04:49:49.134Z,4.42
2018-01-12T04:50:57.962Z,4.52
2018-01-12T04:52:06.790Z,4.55
2018-01-12T04:53:15.667Z,4.55
2018-01-12T04:54:24.493Z,4.55
2018-01-12T04:55:33.320Z,4.44
2018-01-12T04:56:42.154Z,4.45
2018-01-12T04:57:50.997Z,4.55
2018-01-12T04:58:59.838Z,4.55
2018-01-12T05:00:08.684Z,4.5
2018-01-12T05:01:17.522Z,4.58
2018-01-12T05:02:26.365Z,4.47
2018-01-12T05:03:35.481Z,4.55
2018-01-12T05:04:44.699Z,4.58
2018-01-12T05:05:53.537Z,4.45
2018-01-12T05:07:02.383Z,4.44
2018-01-12T05:08:11.499Z,4.5
2018-01-12T05:09:20.341Z,4.5
2018-01-12T05:10:29.186Z,4.52
2018-01-12T05:11:38.026Z,4.42
2018-01-12T05:12:46.869Z,4.55
2018-01-12T05:13:55.712Z,4.52
2018-01-12T05:15:04.569Z,4.54
2018-01-12T05:16:14.064Z,4.58
2018-01-12T05:17:22.911Z,4.5
2018-01-12T05:18:31.753Z,4.47
2018-01-12T05:19:40.592Z,4.58
2018-01-12T05:20:49.432Z,4.41
2018-01-12T05:21:58.273Z,4.42
2018-01-12T05:23:07.111Z,4.41
2018-01-12T05:24:15.939Z,4.42
2018-01-12T05:25:24.770Z,4.42
2018-01-12T05:26:33.598Z,4.42
2018-01-12T05:27:42.529Z,4.45
2018-01-12T05:28:51.631Z,4.44
2018-01-12T05:30:00.459Z,4.33
2018-01-12T05:31:09.289Z,4.4
2018-01-12T05:32:18.393Z,4.45
2018-01-12T05:33:27.370Z,4.47
2018-01-12T05:34:36.198Z,4.42
2018-01-12T05:35:45.034Z,4.42
2018-01-12T05:36:53.861Z,4.4
2018-01-12T05:38:02.706Z,4.55
2018-01-12T05:39:11.967Z,4.45
2018-01-12T05:40:20.827Z,4.48
2018-01-12T05:41:29.935Z,4.54
2018-01-12T05:42:38.763Z,4.45
2018-01-12T05:43:47.591Z,4.45
2018-01-12T05:44:56.724Z,4.42
2018-01-12T05:46:05.831Z,4.44
2018-01-12T05:47:14.708Z,4.58
2018-01-12T05:48:23.538Z,4.51
2018-01-12T05:49:32.366Z,4.54
2018-01-12T05:50:41.243Z,4.55
2018-01-12T05:51:50.068Z,4.55
2018-01-12T05:52:58.896Z,4.47
2018-01-12T05:54:07.727Z,4.47
2018-01-12T05:55:16.556Z,4.44
2018-01-12T05:56:25.385Z,4.52
2018-01-12T05:57:34.213Z,4.48
2018-01-12T05:58:43.042Z,4.59
2018-01-12T05:59:51.872Z,4.48
2018-01-12T06:01:00.750Z,4.52
2018-01-12T06:02:09.978Z,4.54
2018-01-12T06:03:18.806Z,4.47
2018-01-12T06:04:27.633Z,4.44
2018-01-12T06:05:36.462Z,4.44
2018-01-12T06:06:45.290Z,4.42
2018-01-12T06:07:54.117Z,4.44
2018-01-12T06:09:02.945Z,4.44
2018-01-12T06:10:11.772Z,4.44
2018-01-12T06:11:20.602Z,4.47
2018-01-12T06:12:29.430Z,4.47
2018-01-12T06:13:38.687Z,4.42
2018-01-12T06:14:47.792Z,4.45
2018-01-12T06:15:56.620Z,4.44
2018-01-12T06:17:05.449Z,4.44
2018-01-12T06:18:14.278Z,4.47
2018-01-12T06:19:23.108Z,4.47
2018-01-12T06:20:31.937Z,4.42
2018-01-12T06:21:40.764Z,4.51
2018-01-12T06:22:49.590Z,4.47
2018-01-12T06:23:58.426Z,4.55
2018-01-12T06:25:07.405Z,4.54
2018-01-12T06:26:16.234Z,4.42
2018-01-12T06:27:25.067Z,4.45
2018-01-12T06:28:33.899Z,4.42
2018-01-12T06:29:42.998Z,4.41
2018-01-12T06:30:51.876Z,4.41
2018-01-12T06:32:00.711Z,4.32
2018-01-12T06:33:09.532Z,4.34
2018-01-12T06:34:18.635Z,4.32
2018-01-12T06:35:27.465Z,4.23
2018-01-12T06:36:36.965Z,4.15
2018-01-12T06:37:46.068Z,4.16
2018-01-12T06:38:54.895Z,4.12
2018-01-12T06:40:03.722Z,4.26
2018-01-12T06:41:12.550Z,4.32
2018-01-12T06:42:21.476Z,4.29
2018-01-12T06:43:30.583Z,4.24
2018-01-12T06:44:39.411Z,4.3
2018-01-12T06:45:48.239Z,4.24
2018-01-12T06:46:57.068Z,4.26
2018-01-12T06:48:06.198Z,4.24
2018-01-12T06:49:15.028Z,4.16
2018-01-12T06:50:23.855Z,4.2
2018-01-12T06:51:32.960Z,4.05
2018-01-12T06:52:41.788Z,4.14
2018-01-12T06:53:50.664Z,4.15
2018-01-12T06:54:59.491Z,4.24
2018-01-12T06:56:08.320Z,4.29
2018-01-12T06:57:17.200Z,4.29
2018-01-12T06:58:26.028Z,4.3
2018-01-12T06:59:35.277Z,4.32
2018-01-12T07:00:44.384Z,4.26
2018-01-12T07:01:53.211Z,4.32
2018-01-12T07:03:02.038Z,4.27
2018-01-12T07:04:10.869Z,4.3
2018-01-12T07:05:20.029Z,4.3
2018-01-12T07:06:28.858Z,4.24
2018-01-12T07:07:37.968Z,4.36
2018-01-12T07:08:46.797Z,4.32
2018-01-12T07:09:55.626Z,4.34
2018-01-12T07:11:04.780Z,4.29
2018-01-12T07:12:13.621Z,4.26
2018-01-12T07:13:22.730Z,4.3
2018-01-12T07:14:31.830Z,4.32
2018-01-12T07:15:40.658Z,4.3
2018-01-12T07:16:49.535Z,4.33
2018-01-12T07:17:58.365Z,4.32
2018-01-12T07:19:07.200Z,4.33
2018-01-12T07:20:16.032Z,4.36
2018-01-12T07:21:24.864Z,4.32
2018-01-12T07:22:33.836Z,4.32
2018-01-12T07:23:42.663Z,4.33
2018-01-12T07:24:51.496Z,4.22
2018-01-12T07:26:00.330Z,4.36
2018-01-12T07:27:09.156Z,4.29
2018-01-12T07:28:17.984Z,4.33
2018-01-12T07:29:26.817Z,4.27
2018-01-12T07:30:35.644Z,4.3
2018-01-12T07:31:44.475Z,4.27
2018-01-12T07:32:53.298Z,4.32
2018-01-12T07:34:02.801Z,4.26
2018-01-12T07:35:11.629Z,4.3
2018-01-12T07:36:20.733Z,4.27
2018-01-12T07:37:29.561Z,4.22
2018-01-12T07:38:38.388Z,4.26
2018-01-12T07:39:47.367Z,4.23
2018-01-12T07:40:56.193Z,4.33
2018-01-12T07:42:05.022Z,4.3
2018-01-12T07:43:13.851Z,4.32
2018-01-12T07:44:22.677Z,4.29
2018-01-12T07:45:31.764Z,4.26
2018-01-12T07:46:40.591Z,4.3
2018-01-12T07:47:49.417Z,4.32
2018-01-12T07:48:58.246Z,4.26
2018-01-12T07:50:07.073Z,4.27
2018-01-12T07:51:15.902Z,4.29
2018-01-12T07:52:24.729Z,4.29
2018-01-12T07:53:33.557Z,4.23
2018-01-12T07:54:42.383Z,4.24
2018-01-12T07:55:51.213Z,4.23
2018-01-12T07:57:00.465Z,4.15
2018-01-12T07:58:09.294Z,4.24
2018-01-12T07:59:18.399Z,4.22
2018-01-12T08:00:27.501Z,4.29
2018-01-12T08:01:36.328Z,4.23
2018-01-12T08:02:45.157Z,4.12
2018-01-12T08:03:53.988Z,4.12
2018-01-12T08:05:02.813Z,4.26
2018-01-12T08:06:11.640Z,4.06
2018-01-12T08:07:20.467Z,4.11
2018-01-12T08:08:29.345Z,4.06
2018-01-12T08:09:38.175Z,4.14
2018-01-12T08:10:47.280Z,4.18
2018-01-12T08:11:56.114Z,4.11
2018-01-12T08:13:04.943Z,4.14
2018-01-12T08:14:13.767Z,4.14
2018-01-12T08:15:22.592Z,4.16
2018-01-12T08:16:31.418Z,4.18
2018-01-12T08:17:40.246Z,4.16
2018-01-12T08:18:49.073Z,4.22
2018-01-12T08:19:58.051Z,4.26
2018-01-12T08:21:06.880Z,4.24
2018-01-12T08:22:15.707Z,4.11
2018-01-12T08:23:24.534Z,4.11
2018-01-12T08:24:33.362Z,4.12
2018-01-12T08:25:42.195Z,4.08
2018-01-12T08:26:51.022Z,4.09
2018-01-12T08:27:59.852Z,4.11
2018-01-12T08:29:08.677Z,4.06
2018-01-12T08:30:17.505Z,4.09
2018-01-12T08:31:26.384Z,4.06
2018-01-12T08:32:35.210Z,4.06
2018-01-12T08:33:44.036Z,4.24
2018-01-12T08:34:52.860Z,4.11
2018-01-12T08:36:01.688Z,4.2
2018-01-12T08:37:10.561Z,4.15
2018-01-12T08:38:19.396Z,4.2
2018-01-12T08:39:28.501Z,4.05
2018-01-12T08:40:37.601Z,4.15
2018-01-12T08:41:46.430Z,4.14
2018-01-12T08:42:55.405Z,4.16
2018-01-12T08:44:04.233Z,4.18
2018-01-12T08:45:13.060Z,4.09
2018-01-12T08:46:21.887Z,4.06
2018-01-12T08:47:30.714Z,4.08
2018-01-12T08:48:39.540Z,4.11
2018-01-12T08:49:48.368Z,4.08
2018-01-12T08:50:57.196Z,4.09
2018-01-12T08:52:06.023Z,4.16
2018-01-12T08:53:14.849Z,4.16
2018-01-12T08:54:23.725Z,4.08
2018-01-12T08:55:32.552Z,4.2
2018-01-12T08:56:41.381Z,4.05
2018-01-12T08:57:50.207Z,4.08
2018-01-12T08:58:59.034Z,4.06
2018-01-12T09:00:08.011Z,4.05
2018-01-12T09:01:16.839Z,4.08
2018-01-12T09:02:25.945Z,4.14
2018-01-12T09:03:34.773Z,4.12
2018-01-12T09:04:43.601Z,4.23
2018-01-12T09:05:52.854Z,4.14
2018-01-12T09:07:01.682Z,4.15
2018-01-12T09:08:10.507Z,4.15
2018-01-12T09:09:19.337Z,4.24
2018-01-12T09:10:28.161Z,4.24
2018-01-12T09:11:37.039Z,4.16
2018-01-12T09:12:45.868Z,4.09
2018-01-12T09:13:54.967Z,4.16
2018-01-12T09:15:03.792Z,4.15
2018-01-12T09:16:12.618Z,4.11
2018-01-12T09:17:21.445Z,4.18
2018-01-12T09:18:30.274Z,4.24
2018-01-12T09:19:39.102Z,4.12
2018-01-12T09:20:47.928Z,4.12
2018-01-12T09:21:56.758Z,4.23
2018-01-12T09:23:05.634Z,4.24
2018-01-12T09:24:14.459Z,4.23
2018-01-12T09:25:23.566Z,4.11
2018-01-12T09:26:32.392Z,4.05
2018-01-12T09:27:41.218Z,4.16
2018-01-12T09:28:50.196Z,4.09
2018-01-12T09:29:59.022Z,4.06
2018-01-12T09:31:07.850Z,4.15
2018-01-12T09:32:16.673Z,4.24
2018-01-12T09:33:25.500Z,4.14
2018-01-12T09:34:34.478Z,4.14
2018-01-12T09:35:43.576Z,4.11
2018-01-12T09:36:52.406Z,4.15
2018-01-12T09:38:01.520Z,4.08
2018-01-12T09:39:10.349Z,3.98
2018-01-12T09:40:19.229Z,4.06
2018-01-12T09:41:28.338Z,4.06
2018-01-12T09:42:37.168Z,4.12
2018-01-12T09:43:45.996Z,4.06
2018-01-12T09:44:55.096Z,4.08
2018-01-12T09:46:04.222Z,4.2
2018-01-12T09:47:13.597Z,4.12
2018-01-12T09:48:22.424Z,4.05
2018-01-12T09:49:31.254Z,4.16
2018-01-12T09:50:40.081Z,4.14
2018-01-12T09:51:49.236Z,4.14
2018-01-12T09:52:58.064Z,4.14
2018-01-12T09:54:07.168Z,4.14
2018-01-12T09:55:15.996Z,4.08
2018-01-12T09:56:25.096Z,4.04
2018-01-12T09:57:34.074Z,4.05
2018-01-12T09:58:42.952Z,4.02
2018-01-12T09:59:51.778Z,4.04
2018-01-12T10:01:00.606Z,4.02
2018-01-12T10:02:09.437Z,4.02
2018-01-12T10:03:18.314Z,4
2018-01-12T10:04:27.144Z,3.91
2018-01-12T10:05:35.969Z,4.02
2018-01-12T10:06:44.796Z,4.08
2018-01-12T10:07:53.623Z,4.05
2018-01-12T10:09:02.449Z,4.15
2018-01-12T10:10:11.277Z,4.09
2018-01-12T10:11:20.102Z,4.14
2018-01-12T10:12:28.930Z,4.11
2018-01-12T10:13:37.759Z,4.09
2018-01-12T10:14:46.887Z,4.16
2018-01-12T10:15:55.716Z,4.11
2018-01-12T10:17:04.548Z,4.14
2018-01-12T10:18:13.648Z,4.08
2018-01-12T10:19:22.475Z,4.15
2018-01-12T10:20:31.452Z,4.09
2018-01-12T10:21:40.277Z,4.12
2018-01-12T10:22:49.104Z,4.15
2018-01-12T10:23:57.929Z,4.18
2018-01-12T10:25:06.758Z,4.12
2018-01-12T10:26:15.786Z,4.08
2018-01-12T10:27:24.614Z,4.14
2018-01-12T10:28:33.443Z,4.09
2018-01-12T10:29:42.270Z,4.12
2018-01-12T10:30:51.097Z,4.09
2018-01-12T10:31:59.926Z,4.08
2018-01-12T10:33:08.751Z,4
2018-01-12T10:34:17.579Z,4.06
2018-01-12T10:35:26.406Z,3.97
2018-01-12T10:36:35.234Z,4.06
2018-01-12T10:37:44.214Z,4.08
2018-01-12T10:38:53.317Z,3.97
2018-01-12T10:40:02.144Z,4.02
2018-01-12T10:41:10.970Z,4.04
2018-01-12T10:42:19.795Z,4.08
2018-01-12T10:43:28.723Z,4.06
2018-01-12T10:44:37.552Z,4.14
2018-01-12T10:45:46.382Z,4.11
2018-01-12T10:46:55.483Z,4.11
2018-01-12T10:48:04.309Z,4.06
2018-01-12T10:49:13.236Z,4.14
2018-01-12T10:50:22.340Z,4.12
2018-01-12T10:51:31.169Z,4.11
2018-01-12T10:52:39.995Z,4.24
2018-01-12T10:53:48.822Z,4.26
2018-01-12T10:54:57.925Z,4.11
2018-01-12T10:56:06.757Z,4.11
2018-01-12T10:57:15.583Z,4.14
2018-01-12T10:58:24.408Z,4.11
2018-01-12T10:59:33.236Z,4.12
2018-01-12T11:00:42.112Z,4.16
2018-01-12T11:01:50.940Z,4.2
2018-01-12T11:03:00.042Z,4.12
2018-01-12T11:04:08.867Z,4.22
2018-01-12T11:05:17.696Z,4.26
2018-01-12T11:06:26.822Z,4.27
2018-01-12T11:07:35.650Z,4.32
2018-01-12T11:08:44.480Z,4.27
2018-01-12T11:09:53.305Z,4.3
2018-01-12T11:11:02.133Z,4.29
2018-01-12T11:12:11.260Z,4.3
2018-01-12T11:13:20.086Z,4.2
2018-01-12T11:14:28.915Z,4.29
2018-01-12T11:15:38.017Z,4.33
2018-01-12T11:16:46.844Z,4.29
2018-01-12T11:17:55.721Z,4.34
2018-01-12T11:19:04.841Z,4.24
2018-01-12T11:20:13.987Z,4.3
2018-01-12T11:21:22.813Z,4.26
2018-01-12T11:22:31.640Z,4.23
2018-01-12T11:23:40.564Z,4.33
2018-01-12T11:24:49.393Z,4.27
2018-01-12T11:25:58.218Z,4.29
2018-01-12T11:27:07.047Z,4.32
2018-01-12T11:28:15.875Z,4.33
2018-01-12T11:29:24.985Z,4.29
2018-01-12T11:30:33.813Z,4.12
2018-01-12T11:31:42.640Z,4.11
2018-01-12T11:32:51.468Z,4.22
2018-01-12T11:34:00.573Z,4.26
2018-01-12T11:35:09.674Z,4.27
2018-01-12T11:36:18.498Z,4.34
2018-01-12T11:37:27.328Z,4.3
2018-01-12T11:38:36.156Z,4.32
2018-01-12T11:39:44.983Z,4.26
2018-01-12T11:40:53.910Z,4.22
2018-01-12T11:42:02.736Z,4.16
2018-01-12T11:43:11.565Z,4.22
2018-01-12T11:44:20.392Z,4.29
2018-01-12T11:45:29.218Z,4.34
2018-01-12T11:46:38.196Z,4.32
2018-01-12T11:47:47.029Z,4.29
2018-01-12T11:48:55.852Z,4.34
2018-01-12T11:50:04.681Z,4.32
2018-01-12T11:51:13.511Z,4.27
2018-01-12T11:52:22.762Z,4.29
2018-01-12T11:53:31.590Z,4.3
2018-01-12T11:54:40.416Z,4.23
2018-01-12T11:55:49.242Z,4.15
2018-01-12T11:56:58.070Z,4.24
2018-01-12T11:58:07.045Z,4.3
2018-01-12T11:59:15.873Z,4.34
2018-01-12T12:00:24.972Z,4.34
2018-01-12T12:01:33.806Z,4.33
2018-01-12T12:02:42.904Z,4.37
2018-01-12T12:03:51.731Z,4.26
2018-01-12T12:05:00.555Z,4.37
2018-01-12T12:06:09.382Z,4.26
2018-01-12T12:07:18.209Z,4.32
2018-01-12T12:08:27.314Z,4.42
2018-01-12T12:09:36.242Z,4.4
2018-01-12T12:10:45.084Z,4.3
2018-01-12T12:11:53.898Z,4.32
2018-01-12T12:13:02.726Z,4.4
2018-01-12T12:14:11.555Z,4.32
2018-01-12T12:15:20.682Z,4.34
2018-01-12T12:16:29.512Z,4.37
2018-01-12T12:17:38.339Z,4.3
2018-01-12T12:18:47.166Z,4.33
2018-01-12T12:19:55.993Z,4.34
2018-01-12T12:21:04.823Z,4.32
2018-01-12T12:22:13.649Z,4.36
2018-01-12T12:23:22.479Z,4.33
2018-01-12T12:24:31.308Z,4.37
2018-01-12T12:25:40.135Z,4.36
2018-01-12T12:26:49.215Z,4.34
2018-01-12T12:27:58.042Z,4.3
2018-01-12T12:29:07.149Z,4.24
2018-01-12T12:30:15.979Z,4.32
2018-01-12T12:31:24.813Z,4.23
2018-01-12T12:32:33.641Z,4.3
2018-01-12T12:33:42.740Z,4.18
2018-01-12T12:34:51.567Z,4.15
2018-01-12T12:36:00.396Z,4.18
2018-01-12T12:37:09.223Z,4.15
2018-01-12T12:38:18.201Z,4.12
2018-01-12T12:39:27.030Z,4.16
2018-01-12T12:40:35.859Z,4.16
2018-01-12T12:41:44.683Z,4.22
2018-01-12T12:42:53.511Z,4.24
2018-01-12T12:44:02.489Z,4.27
2018-01-12T12:45:11.316Z,4.24
2018-01-12T12:46:20.143Z,4.24
2018-01-12T12:47:28.970Z,4.18
2018-01-12T12:48:37.796Z,4.18
2018-01-12T12:49:46.622Z,4.23
2018-01-12T12:50:55.451Z,4.12
2018-01-12T12:52:04.275Z,4.29
2018-01-12T12:53:13.102Z,4.33
2018-01-12T12:54:21.933Z,4.33
2018-01-12T12:55:30.761Z,4.32
2018-01-12T12:56:39.588Z,4.33
2018-01-12T12:57:48.415Z,4.33
2018-01-12T12:58:57.246Z,4.34
2018-01-12T13:00:06.074Z,4.34
2018-01-12T13:01:15.223Z,4.26
2018-01-12T13:02:24.053Z,4.26
2018-01-12T13:03:33.427Z,4.36
2018-01-12T13:04:42.253Z,4.34
2018-01-12T13:05:51.083Z,4.32
2018-01-12T13:06:59.913Z,4.34
2018-01-12T13:08:08.736Z,4.27
2018-01-12T13:09:17.564Z,4.34
2018-01-12T13:10:26.392Z,4.27
2018-01-12T13:11:35.219Z,4.29
2018-01-12T13:12:44.145Z,4.32
2018-01-12T13:13:52.974Z,4.27
2018-01-12T13:15:01.803Z,4.24
2018-01-12T13:16:10.633Z,4.3
2018-01-12T13:17:19.734Z,4.26
2018-01-12T13:18:28.660Z,4.16
2018-01-12T13:19:37.487Z,4.24
2018-01-12T13:20:46.313Z,4.22
2018-01-12T13:21:55.143Z,4.26
2018-01-12T13:23:03.975Z,4.3
2018-01-12T13:24:13.174Z,4.33
2018-01-12T13:25:22.002Z,4.27
2018-01-12T13:26:30.832Z,4.32
2018-01-12T13:27:39.657Z,4.36
2018-01-12T13:28:48.485Z,4.32
2018-01-12T13:29:57.611Z,4.27
2018-01-12T13:31:06.439Z,4.32
2018-01-12T13:32:15.267Z,4.42
2018-01-12T13:33:24.093Z,4.3
2018-01-12T13:34:32.924Z,4.42
2018-01-12T13:35:41.905Z,4.34
2018-01-12T13:36:51.004Z,4.41
2018-01-12T13:37:59.830Z,4.44
2018-01-12T13:39:08.659Z,4.4
2018-01-12T13:40:17.486Z,4.4
2018-01-12T13:41:26.465Z,4.47
2018-01-12T13:42:35.567Z,4.27
2018-01-12T13:43:44.394Z,4.4
2018-01-12T13:44:53.223Z,4.4
2018-01-12T13:46:02.052Z,4.29
2018-01-12T13:47:11.029Z,4.44
2018-01-12T13:48:19.857Z,4.47
2018-01-12T13:49:28.683Z,4.44
2018-01-12T13:50:37.559Z,4.4
2018-01-12T13:51:46.340Z,4.44
2018-01-12T13:52:55.166Z,4.44
2018-01-12T13:54:03.992Z,4.45
2018-01-12T13:55:12.823Z,4.4
2018-01-12T13:56:21.646Z,4.47
2018-01-12T13:57:30.475Z,4.44
2018-01-12T13:58:39.603Z,4.5
2018-01-12T13:59:48.430Z,4.47
2018-01-12T14:00:57.257Z,4.52
2018-01-12T14:02:06.084Z,4.42
2018-01-12T14:03:14.912Z,4.48
2018-01-12T14:04:23.791Z,4.44
2018-01-12T14:05:32.618Z,4.59
2018-01-12T14:06:41.446Z,4.42
2018-01-12T14:07:50.269Z,4.54
2018-01-12T14:08:59.097Z,4.47
2018-01-12T14:10:07.924Z,4.59
2018-01-12T14:11:17.024Z,4.42
2018-01-12T14:12:25.856Z,4.42
2018-01-12T14:13:34.685Z,4.44
2018-01-12T14:14:43.516Z,4.52
2018-01-12T14:15:52.399Z,4.45
2018-01-12T14:17:01.238Z,4.52
2018-01-12T14:18:10.077Z,4.42
2018-01-12T14:19:18.910Z,4.47
2018-01-12T14:20:27.738Z,4.47
2018-01-12T14:21:36.964Z,4.47
2018-01-12T14:22:45.794Z,4.5
2018-01-12T14:23:54.620Z,4.42
2018-01-12T14:25:03.447Z,4.44
2018-01-12T14:26:12.276Z,4.51
2018-01-12T14:27:21.154Z,4.42
2018-01-12T14:28:30.255Z,4.42
2018-01-12T14:29:39.082Z,4.33
2018-01-12T14:30:47.908Z,4.24
2018-01-12T14:31:56.737Z,4.33
2018-01-12T14:33:05.714Z,4.32
2018-01-12T14:34:14.541Z,4.47
2018-01-12T14:35:23.369Z,4.29
2018-01-12T14:36:32.195Z,4.4
2018-01-12T14:37:41.022Z,4.29
2018-01-12T14:38:49.949Z,4.42
2018-01-12T14:39:58.778Z,4.36
2018-01-12T14:41:07.605Z,4.36
2018-01-12T14:42:16.439Z,4.41
2018-01-12T14:43:25.538Z,4.44
2018-01-12T14:44:34.365Z,4.33
2018-01-12T14:45:43.192Z,4.3
2018-01-12T14:46:52.018Z,4.24
2018-01-12T14:48:00.846Z,4.22
2018-01-12T14:49:09.671Z,4.23
2018-01-12T14:50:18.497Z,4.32
2018-01-12T14:51:27.325Z,4.18
2018-01-12T14:52:36.152Z,4.11
2018-01-12T14:53:44.980Z,4.23
2018-01-12T14:54:53.808Z,4.26
2018-01-12T14:56:02.637Z,4.22
2018-01-12T14:57:11.462Z,4.18
2018-01-12T14:58:20.291Z,4.2
2018-01-12T14:59:29.117Z,4.26
2018-01-12T15:00:37.948Z,4.3
2018-01-12T15:01:46.776Z,4.32
2018-01-12T15:02:55.637Z,4.32
2018-01-12T15:04:04.465Z,4.34
2018-01-12T15:05:13.295Z,4.2
2018-01-12T15:06:22.123Z,4.14
2018-01-12T15:07:30.951Z,4.14
2018-01-12T15:08:39.775Z,4.18
2018-01-12T15:09:48.604Z,4.12
2018-01-12T15:10:57.707Z,4.12
2018-01-12T15:12:06.534Z,4.24
2018-01-12T15:13:15.362Z,4.23
2018-01-12T15:14:24.188Z,4.2
2018-01-12T15:15:33.015Z,4.08
2018-01-12T15:16:41.841Z,4.09
2018-01-12T15:17:50.667Z,4.06
2018-01-12T15:18:59.496Z,4.08
2018-01-12T15:20:08.325Z,4.09